sensor_id;sensor_type;location;lat;lon;timestamp;P1;durP1;ratioP1;P2;durP2;ratioP2
5967;SDS011;3010;51.028;4.170;2023-12-29T00:00:17;12.63;;;3.03;;
5967;SDS011;3010;51.028;4.170;2023-12-29T00:02:43;13.20;;;3.30;;
5967;SDS011;3010;51.028;4.170;2023-12-29T00:05:10;8.90;;;3.00;;
5967;SDS011;3010;51.028;4.170;2023-12-29T00:07:36;11.37;;;4.27;;
5967;SDS011;3010;51.028;4.170;2023-12-29T00:10:03;11.38;;;2.95;;
5967;SDS011;3010;51.028;4.170;2023-12-29T00:12:30;10.18;;;3.37;;
5967;SDS011;3010;51.028;4.170;2023-12-29T00:14:56;14.40;;;3.70;;
5967;SDS011;3010;51.028;4.170;2023-12-29T00:17:23;11.47;;;3.60;;
5967;SDS011;3010;51.028;4.170;2023-12-29T00:19:49;7.17;;;3.00;;
5967;SDS011;3010;51.028;4.170;2023-12-29T00:22:16;8.40;;;3.00;;
5967;SDS011;3010;51.028;4.170;2023-12-29T00:24:43;14.37;;;3.53;;
5967;SDS011;3010;51.028;4.170;2023-12-29T00:27:09;6.50;;;2.67;;
5967;SDS011;3010;51.028;4.170;2023-12-29T00:29:36;7.37;;;3.20;;
5967;SDS011;3010;51.028;4.170;2023-12-29T00:32:02;10.23;;;3.33;;
5967;SDS011;3010;51.028;4.170;2023-12-29T00:34:29;11.90;;;3.23;;
5967;SDS011;3010;51.028;4.170;2023-12-29T00:36:56;12.53;;;3.60;;
5967;SDS011;3010;51.028;4.170;2023-12-29T00:39:22;10.80;;;3.07;;
5967;SDS011;3010;51.028;4.170;2023-12-29T00:41:49;9.80;;;3.17;;
5967;SDS011;3010;51.028;4.170;2023-12-29T00:44:15;12.02;;;3.45;;
5967;SDS011;3010;51.028;4.170;2023-12-29T00:46:42;12.73;;;3.50;;
5967;SDS011;3010;51.028;4.170;2023-12-29T00:49:08;11.05;;;3.45;;
5967;SDS011;3010;51.028;4.170;2023-12-29T00:51:38;13.40;;;3.73;;
5967;SDS011;3010;51.028;4.170;2023-12-29T00:54:02;13.30;;;3.20;;
5967;SDS011;3010;51.028;4.170;2023-12-29T00:56:28;12.17;;;3.57;;
5967;SDS011;3010;51.028;4.170;2023-12-29T00:58:55;11.10;;;3.40;;
5967;SDS011;3010;51.028;4.170;2023-12-29T01:01:21;10.93;;;3.27;;
5967;SDS011;3010;51.028;4.170;2023-12-29T01:03:48;12.93;;;3.50;;
5967;SDS011;3010;51.028;4.170;2023-12-29T01:06:15;5.33;;;3.00;;
5967;SDS011;3010;51.028;4.170;2023-12-29T01:08:41;8.43;;;3.07;;
5967;SDS011;3010;51.028;4.170;2023-12-29T01:11:08;8.50;;;2.80;;
5967;SDS011;3010;51.028;4.170;2023-12-29T01:13:34;8.20;;;2.93;;
5967;SDS011;3010;51.028;4.170;2023-12-29T01:16:01;14.03;;;3.70;;
5967;SDS011;3010;51.028;4.170;2023-12-29T01:18:28;8.37;;;3.07;;
5967;SDS011;3010;51.028;4.170;2023-12-29T01:20:54;9.07;;;2.93;;
5967;SDS011;3010;51.028;4.170;2023-12-29T01:23:21;7.13;;;2.90;;
5967;SDS011;3010;51.028;4.170;2023-12-29T01:25:47;7.97;;;2.80;;
5967;SDS011;3010;51.028;4.170;2023-12-29T01:28:14;11.27;;;3.37;;
5967;SDS011;3010;51.028;4.170;2023-12-29T01:30:40;10.13;;;3.27;;
5967;SDS011;3010;51.028;4.170;2023-12-29T01:33:07;10.73;;;3.13;;
5967;SDS011;3010;51.028;4.170;2023-12-29T01:35:34;10.98;;;3.30;;
5967;SDS011;3010;51.028;4.170;2023-12-29T01:38:02;8.63;;;2.87;;
5967;SDS011;3010;51.028;4.170;2023-12-29T01:40:27;6.17;;;3.23;;
5967;SDS011;3010;51.028;4.170;2023-12-29T01:42:53;13.73;;;3.30;;
5967;SDS011;3010;51.028;4.170;2023-12-29T01:45:23;10.68;;;3.62;;
5967;SDS011;3010;51.028;4.170;2023-12-29T01:47:50;11.43;;;3.43;;
5967;SDS011;3010;51.028;4.170;2023-12-29T01:50:17;13.63;;;3.53;;
5967;SDS011;3010;51.028;4.170;2023-12-29T01:52:43;9.68;;;3.35;;
5967;SDS011;3010;51.028;4.170;2023-12-29T01:55:10;13.03;;;3.87;;
5967;SDS011;3010;51.028;4.170;2023-12-29T01:57:36;10.97;;;3.53;;
5967;SDS011;3010;51.028;4.170;2023-12-29T02:00:03;11.27;;;3.72;;
5967;SDS011;3010;51.028;4.170;2023-12-29T02:02:29;14.40;;;3.62;;
5967;SDS011;3010;51.028;4.170;2023-12-29T02:04:56;12.63;;;3.47;;
5967;SDS011;3010;51.028;4.170;2023-12-29T02:07:22;10.33;;;2.97;;
5967;SDS011;3010;51.028;4.170;2023-12-29T02:09:49;8.47;;;3.30;;
5967;SDS011;3010;51.028;4.170;2023-12-29T02:12:16;9.83;;;3.47;;
5967;SDS011;3010;51.028;4.170;2023-12-29T02:14:42;7.97;;;3.20;;
5967;SDS011;3010;51.028;4.170;2023-12-29T02:17:10;8.97;;;2.90;;
5967;SDS011;3010;51.028;4.170;2023-12-29T02:19:42;10.02;;;3.55;;
5967;SDS011;3010;51.028;4.170;2023-12-29T02:22:08;11.40;;;3.42;;
5967;SDS011;3010;51.028;4.170;2023-12-29T02:24:34;11.38;;;3.03;;
5967;SDS011;3010;51.028;4.170;2023-12-29T02:29:33;10.63;;;3.17;;
5967;SDS011;3010;51.028;4.170;2023-12-29T02:32:00;9.77;;;3.10;;
5967;SDS011;3010;51.028;4.170;2023-12-29T02:34:26;12.03;;;3.40;;
5967;SDS011;3010;51.028;4.170;2023-12-29T02:36:53;10.17;;;3.20;;
5967;SDS011;3010;51.028;4.170;2023-12-29T02:39:19;7.70;;;3.30;;
5967;SDS011;3010;51.028;4.170;2023-12-29T02:41:46;10.50;;;3.33;;
5967;SDS011;3010;51.028;4.170;2023-12-29T02:44:13;8.17;;;3.33;;
5967;SDS011;3010;51.028;4.170;2023-12-29T02:46:39;6.17;;;3.13;;
5967;SDS011;3010;51.028;4.170;2023-12-29T02:49:06;8.47;;;3.20;;
5967;SDS011;3010;51.028;4.170;2023-12-29T02:51:32;8.38;;;3.67;;
5967;SDS011;3010;51.028;4.170;2023-12-29T02:53:59;10.65;;;3.55;;
5967;SDS011;3010;51.028;4.170;2023-12-29T02:56:26;9.90;;;3.47;;
5967;SDS011;3010;51.028;4.170;2023-12-29T02:58:52;8.67;;;3.10;;
5967;SDS011;3010;51.028;4.170;2023-12-29T03:01:19;12.27;;;3.20;;
5967;SDS011;3010;51.028;4.170;2023-12-29T03:03:45;9.87;;;3.47;;
5967;SDS011;3010;51.028;4.170;2023-12-29T03:06:12;5.20;;;2.93;;
5967;SDS011;3010;51.028;4.170;2023-12-29T03:08:39;11.93;;;3.10;;
5967;SDS011;3010;51.028;4.170;2023-12-29T03:11:05;11.33;;;3.40;;
5967;SDS011;3010;51.028;4.170;2023-12-29T03:13:32;10.40;;;3.43;;
5967;SDS011;3010;51.028;4.170;2023-12-29T03:15:58;10.73;;;3.45;;
5967;SDS011;3010;51.028;4.170;2023-12-29T03:18:25;8.23;;;3.03;;
5967;SDS011;3010;51.028;4.170;2023-12-29T03:20:51;11.73;;;3.20;;
5967;SDS011;3010;51.028;4.170;2023-12-29T03:23:18;11.43;;;3.53;;
5967;SDS011;3010;51.028;4.170;2023-12-29T03:25:45;9.70;;;3.55;;
5967;SDS011;3010;51.028;4.170;2023-12-29T03:28:11;13.18;;;3.70;;
5967;SDS011;3010;51.028;4.170;2023-12-29T03:30:38;11.43;;;3.53;;
5967;SDS011;3010;51.028;4.170;2023-12-29T03:33:04;10.83;;;3.30;;
5967;SDS011;3010;51.028;4.170;2023-12-29T03:35:31;9.40;;;3.37;;
5967;SDS011;3010;51.028;4.170;2023-12-29T03:37:58;12.10;;;3.53;;
5967;SDS011;3010;51.028;4.170;2023-12-29T03:40:24;13.20;;;3.63;;
5967;SDS011;3010;51.028;4.170;2023-12-29T03:42:51;6.83;;;2.83;;
5967;SDS011;3010;51.028;4.170;2023-12-29T03:45:17;8.60;;;3.03;;
5967;SDS011;3010;51.028;4.170;2023-12-29T03:47:44;15.80;;;3.80;;
5967;SDS011;3010;51.028;4.170;2023-12-29T03:50:10;10.43;;;3.20;;
5967;SDS011;3010;51.028;4.170;2023-12-29T03:52:37;11.17;;;3.40;;
5967;SDS011;3010;51.028;4.170;2023-12-29T03:55:04;9.33;;;2.87;;
5967;SDS011;3010;51.028;4.170;2023-12-29T03:57:30;10.37;;;3.30;;
5967;SDS011;3010;51.028;4.170;2023-12-29T03:59:57;11.33;;;3.30;;
5967;SDS011;3010;51.028;4.170;2023-12-29T04:02:24;11.57;;;3.37;;
5967;SDS011;3010;51.028;4.170;2023-12-29T04:04:50;8.30;;;3.23;;
5967;SDS011;3010;51.028;4.170;2023-12-29T04:07:17;11.13;;;3.37;;
5967;SDS011;3010;51.028;4.170;2023-12-29T04:09:43;10.27;;;3.17;;
5967;SDS011;3010;51.028;4.170;2023-12-29T04:12:10;8.87;;;3.40;;
5967;SDS011;3010;51.028;4.170;2023-12-29T04:14:37;14.67;;;3.33;;
5967;SDS011;3010;51.028;4.170;2023-12-29T04:17:03;11.63;;;3.70;;
5967;SDS011;3010;51.028;4.170;2023-12-29T04:19:30;6.70;;;3.03;;
5967;SDS011;3010;51.028;4.170;2023-12-29T04:21:56;8.37;;;3.17;;
5967;SDS011;3010;51.028;4.170;2023-12-29T04:24:23;11.03;;;3.27;;
5967;SDS011;3010;51.028;4.170;2023-12-29T04:26:50;7.40;;;3.00;;
5967;SDS011;3010;51.028;4.170;2023-12-29T04:29:16;11.47;;;2.97;;
5967;SDS011;3010;51.028;4.170;2023-12-29T04:31:43;10.17;;;3.50;;
5967;SDS011;3010;51.028;4.170;2023-12-29T04:34:09;12.30;;;3.10;;
5967;SDS011;3010;51.028;4.170;2023-12-29T04:36:36;9.07;;;3.33;;
5967;SDS011;3010;51.028;4.170;2023-12-29T04:39:02;8.23;;;3.13;;
5967;SDS011;3010;51.028;4.170;2023-12-29T04:41:29;12.45;;;3.58;;
5967;SDS011;3010;51.028;4.170;2023-12-29T04:43:56;14.13;;;3.87;;
5967;SDS011;3010;51.028;4.170;2023-12-29T04:46:22;11.17;;;3.43;;
5967;SDS011;3010;51.028;4.170;2023-12-29T04:48:49;12.50;;;3.43;;
5967;SDS011;3010;51.028;4.170;2023-12-29T04:51:15;13.50;;;3.10;;
5967;SDS011;3010;51.028;4.170;2023-12-29T04:53:42;8.53;;;2.77;;
5967;SDS011;3010;51.028;4.170;2023-12-29T04:56:09;11.33;;;3.30;;
5967;SDS011;3010;51.028;4.170;2023-12-29T04:58:35;12.13;;;3.47;;
5967;SDS011;3010;51.028;4.170;2023-12-29T05:01:02;10.60;;;2.83;;
5967;SDS011;3010;51.028;4.170;2023-12-29T05:03:28;7.97;;;2.93;;
5967;SDS011;3010;51.028;4.170;2023-12-29T05:05:55;9.23;;;2.83;;
5967;SDS011;3010;51.028;4.170;2023-12-29T05:08:21;9.93;;;3.40;;
5967;SDS011;3010;51.028;4.170;2023-12-29T05:10:48;9.70;;;3.77;;
5967;SDS011;3010;51.028;4.170;2023-12-29T05:13:15;10.27;;;4.00;;
5967;SDS011;3010;51.028;4.170;2023-12-29T05:15:41;7.57;;;2.90;;
5967;SDS011;3010;51.028;4.170;2023-12-29T05:18:08;9.63;;;3.57;;
5967;SDS011;3010;51.028;4.170;2023-12-29T05:20:34;10.53;;;3.30;;
5967;SDS011;3010;51.028;4.170;2023-12-29T05:23:01;11.33;;;3.67;;
5967;SDS011;3010;51.028;4.170;2023-12-29T05:25:28;12.83;;;3.33;;
5967;SDS011;3010;51.028;4.170;2023-12-29T05:27:54;9.97;;;3.33;;
5967;SDS011;3010;51.028;4.170;2023-12-29T05:30:21;12.73;;;3.23;;
5967;SDS011;3010;51.028;4.170;2023-12-29T05:32:47;11.90;;;3.85;;
5967;SDS011;3010;51.028;4.170;2023-12-29T05:35:14;12.37;;;3.67;;
5967;SDS011;3010;51.028;4.170;2023-12-29T05:37:41;9.13;;;2.90;;
5967;SDS011;3010;51.028;4.170;2023-12-29T05:40:07;8.60;;;3.47;;
5967;SDS011;3010;51.028;4.170;2023-12-29T05:42:34;12.73;;;3.23;;
5967;SDS011;3010;51.028;4.170;2023-12-29T05:45:00;12.37;;;3.40;;
5967;SDS011;3010;51.028;4.170;2023-12-29T05:47:27;11.97;;;3.50;;
5967;SDS011;3010;51.028;4.170;2023-12-29T05:49:54;10.83;;;3.67;;
5967;SDS011;3010;51.028;4.170;2023-12-29T05:52:20;17.37;;;3.93;;
5967;SDS011;3010;51.028;4.170;2023-12-29T05:54:47;9.50;;;3.63;;
5967;SDS011;3010;51.028;4.170;2023-12-29T05:57:13;9.60;;;3.53;;
5967;SDS011;3010;51.028;4.170;2023-12-29T05:59:40;12.73;;;3.80;;
5967;SDS011;3010;51.028;4.170;2023-12-29T06:02:06;12.60;;;4.90;;
5967;SDS011;3010;51.028;4.170;2023-12-29T06:04:33;13.97;;;3.30;;
5967;SDS011;3010;51.028;4.170;2023-12-29T06:07:00;10.07;;;3.83;;
5967;SDS011;3010;51.028;4.170;2023-12-29T06:09:26;13.07;;;3.70;;
5967;SDS011;3010;51.028;4.170;2023-12-29T06:11:53;9.20;;;3.60;;
5967;SDS011;3010;51.028;4.170;2023-12-29T06:14:19;14.35;;;3.92;;
5967;SDS011;3010;51.028;4.170;2023-12-29T06:16:46;9.33;;;3.80;;
5967;SDS011;3010;51.028;4.170;2023-12-29T06:19:13;14.20;;;3.83;;
5967;SDS011;3010;51.028;4.170;2023-12-29T06:21:42;20.93;;;4.10;;
5967;SDS011;3010;51.028;4.170;2023-12-29T06:24:09;17.97;;;4.00;;
5967;SDS011;3010;51.028;4.170;2023-12-29T06:26:35;12.27;;;4.10;;
5967;SDS011;3010;51.028;4.170;2023-12-29T06:29:02;12.03;;;3.57;;
5967;SDS011;3010;51.028;4.170;2023-12-29T06:31:28;9.67;;;3.10;;
5967;SDS011;3010;51.028;4.170;2023-12-29T06:33:55;9.33;;;3.87;;
5967;SDS011;3010;51.028;4.170;2023-12-29T06:36:22;11.23;;;3.73;;
5967;SDS011;3010;51.028;4.170;2023-12-29T06:38:48;10.83;;;3.53;;
5967;SDS011;3010;51.028;4.170;2023-12-29T06:41:15;10.10;;;3.80;;
5967;SDS011;3010;51.028;4.170;2023-12-29T06:43:41;11.70;;;3.97;;
5967;SDS011;3010;51.028;4.170;2023-12-29T06:46:08;7.50;;;3.30;;
5967;SDS011;3010;51.028;4.170;2023-12-29T06:48:35;13.13;;;3.70;;
5967;SDS011;3010;51.028;4.170;2023-12-29T06:51:01;13.10;;;3.40;;
5967;SDS011;3010;51.028;4.170;2023-12-29T06:53:28;13.93;;;3.67;;
5967;SDS011;3010;51.028;4.170;2023-12-29T06:55:54;8.70;;;3.33;;
5967;SDS011;3010;51.028;4.170;2023-12-29T06:58:21;9.10;;;3.70;;
5967;SDS011;3010;51.028;4.170;2023-12-29T07:00:47;7.90;;;3.30;;
5967;SDS011;3010;51.028;4.170;2023-12-29T07:03:14;14.10;;;3.50;;
5967;SDS011;3010;51.028;4.170;2023-12-29T07:05:41;8.15;;;3.20;;
5967;SDS011;3010;51.028;4.170;2023-12-29T07:08:07;7.87;;;3.10;;
5967;SDS011;3010;51.028;4.170;2023-12-29T07:10:34;12.40;;;3.57;;
5967;SDS011;3010;51.028;4.170;2023-12-29T07:13:00;6.10;;;3.27;;
5967;SDS011;3010;51.028;4.170;2023-12-29T07:15:27;10.57;;;3.17;;
5967;SDS011;3010;51.028;4.170;2023-12-29T07:17:53;8.97;;;3.03;;
5967;SDS011;3010;51.028;4.170;2023-12-29T07:20:20;9.02;;;3.50;;
5967;SDS011;3010;51.028;4.170;2023-12-29T07:22:47;8.23;;;3.27;;
5967;SDS011;3010;51.028;4.170;2023-12-29T07:25:13;5.10;;;3.50;;
5967;SDS011;3010;51.028;4.170;2023-12-29T07:27:40;12.27;;;3.40;;
5967;SDS011;3010;51.028;4.170;2023-12-29T07:30:07;9.27;;;3.20;;
5967;SDS011;3010;51.028;4.170;2023-12-29T07:32:33;6.07;;;3.43;;
5967;SDS011;3010;51.028;4.170;2023-12-29T07:35:00;5.07;;;3.07;;
5967;SDS011;3010;51.028;4.170;2023-12-29T07:37:26;7.30;;;3.20;;
5967;SDS011;3010;51.028;4.170;2023-12-29T07:39:53;6.57;;;3.27;;
5967;SDS011;3010;51.028;4.170;2023-12-29T07:42:20;8.40;;;3.23;;
5967;SDS011;3010;51.028;4.170;2023-12-29T07:44:46;5.67;;;2.90;;
5967;SDS011;3010;51.028;4.170;2023-12-29T07:47:13;7.93;;;2.70;;
5967;SDS011;3010;51.028;4.170;2023-12-29T07:49:42;7.97;;;2.80;;
5967;SDS011;3010;51.028;4.170;2023-12-29T07:52:09;6.67;;;3.33;;
5967;SDS011;3010;51.028;4.170;2023-12-29T07:54:35;6.75;;;3.83;;
5967;SDS011;3010;51.028;4.170;2023-12-29T07:57:02;5.20;;;3.10;;
5967;SDS011;3010;51.028;4.170;2023-12-29T07:59:28;4.67;;;3.73;;
5967;SDS011;3010;51.028;4.170;2023-12-29T08:01:55;7.13;;;3.50;;
5967;SDS011;3010;51.028;4.170;2023-12-29T08:04:22;5.25;;;3.78;;
5967;SDS011;3010;51.028;4.170;2023-12-29T08:06:48;8.20;;;3.70;;
5967;SDS011;3010;51.028;4.170;2023-12-29T08:09:15;6.87;;;4.00;;
5967;SDS011;3010;51.028;4.170;2023-12-29T08:11:41;4.97;;;4.13;;
5967;SDS011;3010;51.028;4.170;2023-12-29T08:14:08;6.43;;;4.60;;
5967;SDS011;3010;51.028;4.170;2023-12-29T08:16:38;6.00;;;3.60;;
5967;SDS011;3010;51.028;4.170;2023-12-29T08:19:04;8.33;;;4.10;;
5967;SDS011;3010;51.028;4.170;2023-12-29T08:21:31;4.20;;;3.67;;
5967;SDS011;3010;51.028;4.170;2023-12-29T08:23:57;5.70;;;4.00;;
5967;SDS011;3010;51.028;4.170;2023-12-29T08:26:24;9.43;;;4.00;;
5967;SDS011;3010;51.028;4.170;2023-12-29T08:28:50;10.23;;;5.30;;
5967;SDS011;3010;51.028;4.170;2023-12-29T08:31:18;9.27;;;5.10;;
5967;SDS011;3010;51.028;4.170;2023-12-29T08:33:44;4.93;;;4.47;;
5967;SDS011;3010;51.028;4.170;2023-12-29T08:36:11;11.07;;;4.40;;
5967;SDS011;3010;51.028;4.170;2023-12-29T08:38:39;5.57;;;4.27;;
5967;SDS011;3010;51.028;4.170;2023-12-29T08:41:06;5.57;;;3.10;;
5967;SDS011;3010;51.028;4.170;2023-12-29T08:43:32;3.20;;;2.08;;
5967;SDS011;3010;51.028;4.170;2023-12-29T08:45:59;2.10;;;2.07;;
5967;SDS011;3010;51.028;4.170;2023-12-29T08:48:26;2.33;;;2.23;;
5967;SDS011;3010;51.028;4.170;2023-12-29T08:50:52;3.90;;;2.70;;
5967;SDS011;3010;51.028;4.170;2023-12-29T08:53:19;5.80;;;2.67;;
5967;SDS011;3010;51.028;4.170;2023-12-29T08:55:45;4.53;;;2.63;;
5967;SDS011;3010;51.028;4.170;2023-12-29T08:58:12;3.70;;;3.30;;
5967;SDS011;3010;51.028;4.170;2023-12-29T09:00:38;7.50;;;4.27;;
5967;SDS011;3010;51.028;4.170;2023-12-29T09:03:05;7.27;;;4.43;;
5967;SDS011;3010;51.028;4.170;2023-12-29T09:05:32;7.60;;;5.00;;
5967;SDS011;3010;51.028;4.170;2023-12-29T09:07:58;12.07;;;5.17;;
5967;SDS011;3010;51.028;4.170;2023-12-29T09:10:25;10.73;;;5.30;;
5967;SDS011;3010;51.028;4.170;2023-12-29T09:12:51;11.27;;;6.07;;
5967;SDS011;3010;51.028;4.170;2023-12-29T09:15:18;11.70;;;6.07;;
5967;SDS011;3010;51.028;4.170;2023-12-29T09:17:45;12.63;;;6.07;;
5967;SDS011;3010;51.028;4.170;2023-12-29T09:20:11;16.77;;;6.00;;
5967;SDS011;3010;51.028;4.170;2023-12-29T09:22:38;10.67;;;5.70;;
5967;SDS011;3010;51.028;4.170;2023-12-29T09:25:04;11.32;;;5.65;;
5967;SDS011;3010;51.028;4.170;2023-12-29T09:27:31;12.00;;;5.00;;
5967;SDS011;3010;51.028;4.170;2023-12-29T09:29:58;7.70;;;4.40;;
5967;SDS011;3010;51.028;4.170;2023-12-29T09:32:24;8.80;;;3.97;;
5967;SDS011;3010;51.028;4.170;2023-12-29T09:34:51;5.33;;;3.50;;
5967;SDS011;3010;51.028;4.170;2023-12-29T09:37:17;6.80;;;2.90;;
5967;SDS011;3010;51.028;4.170;2023-12-29T09:39:44;6.00;;;2.83;;
5967;SDS011;3010;51.028;4.170;2023-12-29T09:42:15;4.00;;;2.80;;
5967;SDS011;3010;51.028;4.170;2023-12-29T09:44:37;4.97;;;2.00;;
5967;SDS011;3010;51.028;4.170;2023-12-29T09:47:04;2.90;;;1.80;;
5967;SDS011;3010;51.028;4.170;2023-12-29T09:49:33;3.27;;;1.70;;
5967;SDS011;3010;51.028;4.170;2023-12-29T09:51:57;2.63;;;1.60;;
5967;SDS011;3010;51.028;4.170;2023-12-29T09:54:23;2.60;;;1.37;;
5967;SDS011;3010;51.028;4.170;2023-12-29T09:56:50;2.20;;;1.60;;
5967;SDS011;3010;51.028;4.170;2023-12-29T09:59:17;1.50;;;1.40;;
5967;SDS011;3010;51.028;4.170;2023-12-29T10:01:44;2.47;;;1.30;;
5967;SDS011;3010;51.028;4.170;2023-12-29T10:04:10;1.63;;;1.27;;
5967;SDS011;3010;51.028;4.170;2023-12-29T10:06:36;1.42;;;1.30;;
5967;SDS011;3010;51.028;4.170;2023-12-29T10:09:03;1.90;;;1.45;;
5967;SDS011;3010;51.028;4.170;2023-12-29T10:11:29;1.80;;;1.47;;
5967;SDS011;3010;51.028;4.170;2023-12-29T10:13:56;3.40;;;1.40;;
5967;SDS011;3010;51.028;4.170;2023-12-29T10:16:24;1.57;;;1.30;;
5967;SDS011;3010;51.028;4.170;2023-12-29T10:19:23;2.03;;;1.80;;
5967;SDS011;3010;51.028;4.170;2023-12-29T10:24:31;5.27;;;1.90;;
5967;SDS011;3010;51.028;4.170;2023-12-29T10:26:58;2.67;;;2.50;;
5967;SDS011;3010;51.028;4.170;2023-12-29T10:29:25;4.83;;;2.83;;
5967;SDS011;3010;51.028;4.170;2023-12-29T10:31:51;8.47;;;4.50;;
5967;SDS011;3010;51.028;4.170;2023-12-29T10:34:21;12.17;;;4.40;;
5967;SDS011;3010;51.028;4.170;2023-12-29T10:36:47;13.17;;;5.23;;
5967;SDS011;3010;51.028;4.170;2023-12-29T10:39:13;9.67;;;5.20;;
5967;SDS011;3010;51.028;4.170;2023-12-29T10:41:40;14.57;;;5.33;;
5967;SDS011;3010;51.028;4.170;2023-12-29T10:44:07;13.83;;;5.37;;
5967;SDS011;3010;51.028;4.170;2023-12-29T10:46:33;13.75;;;6.55;;
5967;SDS011;3010;51.028;4.170;2023-12-29T10:49:06;10.83;;;6.03;;
5967;SDS011;3010;51.028;4.170;2023-12-29T10:51:33;11.10;;;6.17;;
5967;SDS011;3010;51.028;4.170;2023-12-29T10:53:59;13.80;;;7.00;;
5967;SDS011;3010;51.028;4.170;2023-12-29T10:56:26;10.43;;;5.87;;
5967;SDS011;3010;51.028;4.170;2023-12-29T10:59:03;12.80;;;6.27;;
5967;SDS011;3010;51.028;4.170;2023-12-29T11:01:35;10.97;;;6.43;;
5967;SDS011;3010;51.028;4.170;2023-12-29T11:04:04;11.77;;;6.13;;
5967;SDS011;3010;51.028;4.170;2023-12-29T11:06:30;14.63;;;7.00;;
5967;SDS011;3010;51.028;4.170;2023-12-29T11:08:56;12.27;;;7.00;;
5967;SDS011;3010;51.028;4.170;2023-12-29T11:11:23;13.00;;;7.27;;
5967;SDS011;3010;51.028;4.170;2023-12-29T11:13:49;15.70;;;7.30;;
5967;SDS011;3010;51.028;4.170;2023-12-29T11:16:16;13.53;;;6.13;;
5967;SDS011;3010;51.028;4.170;2023-12-29T11:18:43;8.50;;;6.57;;
5967;SDS011;3010;51.028;4.170;2023-12-29T11:21:10;11.17;;;6.37;;
5967;SDS011;3010;51.028;4.170;2023-12-29T11:23:36;13.62;;;7.57;;
5967;SDS011;3010;51.028;4.170;2023-12-29T11:26:02;15.87;;;7.13;;
5967;SDS011;3010;51.028;4.170;2023-12-29T11:28:29;17.97;;;8.27;;
5967;SDS011;3010;51.028;4.170;2023-12-29T11:30:55;12.07;;;7.00;;
5967;SDS011;3010;51.028;4.170;2023-12-29T11:33:36;13.77;;;7.22;;
5967;SDS011;3010;51.028;4.170;2023-12-29T11:41:37;13.60;;;5.60;;
5967;SDS011;3010;51.028;4.170;2023-12-29T11:44:12;9.30;;;5.90;;
5967;SDS011;3010;51.028;4.170;2023-12-29T11:46:39;11.70;;;5.13;;
5967;SDS011;3010;51.028;4.170;2023-12-29T11:49:05;9.93;;;5.00;;
5967;SDS011;3010;51.028;4.170;2023-12-29T11:51:35;13.00;;;5.30;;
5967;SDS011;3010;51.028;4.170;2023-12-29T11:54:02;11.53;;;6.07;;
5967;SDS011;3010;51.028;4.170;2023-12-29T11:56:33;9.23;;;5.60;;
5967;SDS011;3010;51.028;4.170;2023-12-29T11:59:19;7.40;;;5.07;;
5967;SDS011;3010;51.028;4.170;2023-12-29T12:01:51;10.30;;;5.62;;
5967;SDS011;3010;51.028;4.170;2023-12-29T12:06:59;7.97;;;4.55;;
5967;SDS011;3010;51.028;4.170;2023-12-29T12:09:26;9.47;;;4.93;;
5967;SDS011;3010;51.028;4.170;2023-12-29T12:11:52;6.10;;;4.63;;
5967;SDS011;3010;51.028;4.170;2023-12-29T12:17:29;9.07;;;4.30;;
5967;SDS011;3010;51.028;4.170;2023-12-29T12:20:07;5.87;;;3.47;;
5967;SDS011;3010;51.028;4.170;2023-12-29T12:22:36;8.30;;;3.17;;
5967;SDS011;3010;51.028;4.170;2023-12-29T12:25:03;8.40;;;4.23;;
5967;SDS011;3010;51.028;4.170;2023-12-29T12:27:30;8.70;;;3.57;;
5967;SDS011;3010;51.028;4.170;2023-12-29T12:29:56;4.27;;;2.97;;
5967;SDS011;3010;51.028;4.170;2023-12-29T12:32:23;4.67;;;3.00;;
5967;SDS011;3010;51.028;4.170;2023-12-29T12:34:49;7.27;;;3.17;;
5967;SDS011;3010;51.028;4.170;2023-12-29T12:37:20;7.17;;;2.70;;
5967;SDS011;3010;51.028;4.170;2023-12-29T12:39:48;5.23;;;3.10;;
5967;SDS011;3010;51.028;4.170;2023-12-29T12:42:18;6.27;;;2.30;;
5967;SDS011;3010;51.028;4.170;2023-12-29T12:44:54;2.50;;;2.30;;
5967;SDS011;3010;51.028;4.170;2023-12-29T12:47:15;3.40;;;2.20;;
5967;SDS011;3010;51.028;4.170;2023-12-29T12:49:40;3.33;;;2.03;;
5967;SDS011;3010;51.028;4.170;2023-12-29T12:52:06;2.50;;;2.30;;
5967;SDS011;3010;51.028;4.170;2023-12-29T12:54:33;4.03;;;2.10;;
5967;SDS011;3010;51.028;4.170;2023-12-29T12:57:00;6.70;;;2.77;;
5967;SDS011;3010;51.028;4.170;2023-12-29T12:59:27;3.70;;;2.60;;
5967;SDS011;3010;51.028;4.170;2023-12-29T13:01:53;3.67;;;2.50;;
5967;SDS011;3010;51.028;4.170;2023-12-29T13:04:19;5.20;;;2.43;;
5967;SDS011;3010;51.028;4.170;2023-12-29T13:06:46;3.17;;;2.60;;
5967;SDS011;3010;51.028;4.170;2023-12-29T13:09:13;4.43;;;2.27;;
5967;SDS011;3010;51.028;4.170;2023-12-29T13:11:39;4.57;;;2.23;;
5967;SDS011;3010;51.028;4.170;2023-12-29T13:14:09;3.20;;;2.10;;
5967;SDS011;3010;51.028;4.170;2023-12-29T13:16:36;2.00;;;1.90;;
5967;SDS011;3010;51.028;4.170;2023-12-29T13:19:18;4.30;;;2.53;;
5967;SDS011;3010;51.028;4.170;2023-12-29T13:21:47;3.43;;;2.30;;
5967;SDS011;3010;51.028;4.170;2023-12-29T13:24:16;5.23;;;2.60;;
5967;SDS011;3010;51.028;4.170;2023-12-29T13:26:46;4.20;;;2.40;;
5967;SDS011;3010;51.028;4.170;2023-12-29T13:29:13;4.33;;;2.53;;
5967;SDS011;3010;51.028;4.170;2023-12-29T13:31:39;8.00;;;3.07;;
5967;SDS011;3010;51.028;4.170;2023-12-29T13:34:06;7.40;;;3.50;;
5967;SDS011;3010;51.028;4.170;2023-12-29T13:36:36;5.93;;;3.37;;
5967;SDS011;3010;51.028;4.170;2023-12-29T13:39:06;4.28;;;3.22;;
5967;SDS011;3010;51.028;4.170;2023-12-29T13:41:34;4.12;;;3.47;;
5967;SDS011;3010;51.028;4.170;2023-12-29T13:44:01;5.13;;;3.57;;
5967;SDS011;3010;51.028;4.170;2023-12-29T13:46:27;3.40;;;3.10;;
5967;SDS011;3010;51.028;4.170;2023-12-29T13:48:54;4.03;;;3.63;;
5967;SDS011;3010;51.028;4.170;2023-12-29T13:51:26;9.53;;;3.30;;
5967;SDS011;3010;51.028;4.170;2023-12-29T13:53:59;7.57;;;3.50;;
5967;SDS011;3010;51.028;4.170;2023-12-29T13:56:25;4.30;;;3.20;;
5967;SDS011;3010;51.028;4.170;2023-12-29T13:58:52;5.57;;;3.00;;
5967;SDS011;3010;51.028;4.170;2023-12-29T14:01:19;5.63;;;3.03;;
5967;SDS011;3010;51.028;4.170;2023-12-29T14:03:55;3.43;;;2.70;;
5967;SDS011;3010;51.028;4.170;2023-12-29T14:06:50;2.87;;;2.00;;
5967;SDS011;3010;51.028;4.170;2023-12-29T14:08:53;2.10;;;2.00;;
5967;SDS011;3010;51.028;4.170;2023-12-29T14:11:20;3.08;;;2.00;;
5967;SDS011;3010;51.028;4.170;2023-12-29T14:13:46;2.23;;;1.90;;
5967;SDS011;3010;51.028;4.170;2023-12-29T14:16:16;3.20;;;2.30;;
5967;SDS011;3010;51.028;4.170;2023-12-29T14:21:26;4.50;;;2.70;;
5967;SDS011;3010;51.028;4.170;2023-12-29T14:24:00;3.30;;;3.10;;
5967;SDS011;3010;51.028;4.170;2023-12-29T14:26:26;5.80;;;4.13;;
5967;SDS011;3010;51.028;4.170;2023-12-29T14:29:05;6.83;;;3.63;;
5967;SDS011;3010;51.028;4.170;2023-12-29T14:31:43;9.50;;;4.33;;
5967;SDS011;3010;51.028;4.170;2023-12-29T14:34:09;6.75;;;3.45;;
5967;SDS011;3010;51.028;4.170;2023-12-29T14:36:36;5.23;;;2.90;;
5967;SDS011;3010;51.028;4.170;2023-12-29T14:39:02;3.33;;;2.60;;
5967;SDS011;3010;51.028;4.170;2023-12-29T14:41:29;4.07;;;2.53;;
5967;SDS011;3010;51.028;4.170;2023-12-29T14:43:56;5.37;;;2.63;;
5967;SDS011;3010;51.028;4.170;2023-12-29T14:46:22;4.67;;;2.63;;
5967;SDS011;3010;51.028;4.170;2023-12-29T14:48:49;2.70;;;2.60;;
5967;SDS011;3010;51.028;4.170;2023-12-29T14:51:15;5.50;;;3.23;;
5967;SDS011;3010;51.028;4.170;2023-12-29T14:53:45;13.53;;;4.67;;
5967;SDS011;3010;51.028;4.170;2023-12-29T14:56:11;8.17;;;4.50;;
5967;SDS011;3010;51.028;4.170;2023-12-29T14:58:38;10.47;;;4.17;;
5967;SDS011;3010;51.028;4.170;2023-12-29T15:01:04;8.05;;;4.93;;
5967;SDS011;3010;51.028;4.170;2023-12-29T15:03:31;7.97;;;3.97;;
5967;SDS011;3010;51.028;4.170;2023-12-29T15:05:58;9.63;;;4.18;;
5967;SDS011;3010;51.028;4.170;2023-12-29T15:08:24;7.73;;;4.20;;
5967;SDS011;3010;51.028;4.170;2023-12-29T15:10:51;10.20;;;3.80;;
5967;SDS011;3010;51.028;4.170;2023-12-29T15:13:17;13.93;;;4.37;;
5967;SDS011;3010;51.028;4.170;2023-12-29T15:15:44;13.52;;;4.20;;
5967;SDS011;3010;51.028;4.170;2023-12-29T15:18:10;13.07;;;4.07;;
5967;SDS011;3010;51.028;4.170;2023-12-29T15:20:37;9.90;;;4.00;;
5967;SDS011;3010;51.028;4.170;2023-12-29T15:23:04;7.20;;;3.50;;
5967;SDS011;3010;51.028;4.170;2023-12-29T15:25:30;8.90;;;4.50;;
5967;SDS011;3010;51.028;4.170;2023-12-29T15:27:57;9.57;;;4.40;;